createdAt,value
2023-09-17T00:01:52.006Z,9.02
2023-09-17T00:04:18.664Z,9.75
2023-09-17T00:06:45.203Z,8.73
2023-09-17T00:09:11.808Z,9.48
2023-09-17T00:11:38.304Z,11.35
2023-09-17T00:14:04.806Z,8.75
2023-09-17T00:16:32.825Z,9.75
2023-09-17T00:18:59.785Z,8.68
2023-09-17T00:21:26.216Z,9.52
2023-09-17T00:23:52.920Z,9.43
2023-09-17T00:26:19.474Z,10.50
2023-09-17T00:28:46.224Z,9.52
2023-09-17T00:31:13.513Z,9.35
2023-09-17T00:33:40.012Z,11.00
2023-09-17T00:36:06.501Z,9.73
2023-09-17T00:38:32.944Z,11.77
2023-09-17T00:41:02.900Z,9.25
2023-09-17T00:43:31.375Z,10.75
2023-09-17T00:45:58.150Z,10.48
2023-09-17T00:48:26.061Z,13.38
2023-09-17T00:50:52.495Z,8.50
2023-09-17T00:53:18.921Z,9.02
2023-09-17T00:55:45.495Z,8.77
2023-09-17T00:58:12.140Z,10.25
2023-09-17T01:00:39.889Z,9.95
2023-09-17T01:03:07.821Z,9.98
2023-09-17T01:05:39.865Z,12.32
2023-09-17T01:08:07.232Z,12.55
2023-09-17T01:10:40.917Z,13.82
2023-09-17T01:13:07.987Z,9.30
2023-09-17T01:15:35.415Z,9.63
2023-09-17T01:18:06.314Z,9.85
2023-09-17T01:20:34.952Z,9.68
2023-09-17T01:23:04.318Z,10.48
2023-09-17T01:25:43.697Z,10.65
2023-09-17T01:28:12.837Z,11.38
2023-09-17T01:30:42.930Z,9.90
2023-09-17T01:33:12.946Z,10.95
2023-09-17T01:36:02.839Z,10.10
2023-09-17T01:38:33.514Z,10.48
2023-09-17T01:41:04.157Z,12.50
2023-09-17T01:43:31.283Z,12.55
2023-09-17T01:46:01.484Z,11.48
2023-09-17T01:48:29.068Z,10.13
2023-09-17T01:50:55.970Z,10.63
2023-09-17T01:53:22.817Z,10.40
2023-09-17T01:55:54.008Z,12.07
2023-09-17T01:58:23.017Z,12.10
2023-09-17T02:00:50.476Z,11.65
2023-09-17T02:03:17.117Z,10.40
2023-09-17T02:05:43.653Z,13.77
2023-09-17T02:08:10.212Z,12.07
2023-09-17T02:10:36.805Z,12.10
2023-09-17T02:13:04.169Z,10.85
2023-09-17T02:15:30.625Z,11.77
2023-09-17T02:17:57.090Z,10.30
2023-09-17T02:20:23.557Z,16.02
2023-09-17T02:22:50.079Z,12.50
2023-09-17T02:25:16.545Z,12.48
2023-09-17T02:27:43.059Z,11.70
2023-09-17T02:30:09.794Z,11.25
2023-09-17T02:32:38.561Z,11.27
2023-09-17T02:35:08.506Z,11.95
2023-09-17T02:37:35.292Z,12.25
2023-09-17T02:40:01.794Z,10.35
2023-09-17T02:42:29.560Z,12.32
2023-09-17T02:44:57.382Z,9.68
2023-09-17T02:47:23.878Z,11.82
2023-09-17T02:49:50.458Z,11.55
2023-09-17T02:52:23.008Z,11.55
2023-09-17T02:54:49.563Z,11.73
2023-09-17T02:57:16.027Z,14.50
2023-09-17T02:59:42.485Z,13.75
2023-09-17T03:02:09.093Z,9.98
2023-09-17T03:04:37.457Z,10.57
2023-09-17T03:07:05.464Z,10.85
2023-09-17T03:09:31.998Z,11.27
2023-09-17T03:11:58.618Z,10.77
2023-09-17T03:14:26.052Z,11.02
2023-09-17T03:16:52.599Z,10.65
2023-09-17T03:19:20.992Z,12.80
2023-09-17T03:21:47.870Z,11.18
2023-09-17T03:24:16.486Z,10.65
2023-09-17T03:26:43.363Z,13.18
2023-09-17T03:29:09.958Z,14.55
2023-09-17T03:31:38.035Z,13.00
2023-09-17T03:34:08.222Z,10.80
2023-09-17T03:36:38.418Z,10.93
2023-09-17T03:39:09.844Z,11.68
2023-09-17T03:41:42.163Z,11.60
2023-09-17T03:44:11.246Z,11.68
2023-09-17T03:46:38.485Z,12.73
2023-09-17T03:49:05.065Z,15.68
2023-09-17T03:51:31.988Z,12.40
2023-09-17T03:53:59.525Z,14.45
2023-09-17T03:56:26.993Z,12.43
2023-09-17T03:58:55.731Z,13.55
2023-09-17T04:01:23.508Z,13.70
2023-09-17T04:03:50.995Z,13.60
2023-09-17T04:06:19.517Z,16.48
2023-09-17T04:08:46.126Z,11.60
2023-09-17T04:11:17.297Z,13.10
2023-09-17T04:13:44.539Z,13.27
2023-09-17T04:16:11.764Z,16.00
2023-09-17T04:18:38.246Z,13.25
2023-09-17T04:21:04.950Z,16.77
2023-09-17T04:23:31.564Z,14.80
2023-09-17T04:25:58.075Z,16.52
2023-09-17T04:28:24.625Z,17.00
2023-09-17T04:30:51.145Z,16.27
2023-09-17T04:33:17.702Z,22.17
2023-09-17T04:35:44.249Z,19.67
2023-09-17T04:38:11.453Z,18.85
2023-09-17T04:40:38.174Z,22.45
2023-09-17T04:43:08.186Z,21.48
2023-09-17T04:45:34.800Z,20.88
2023-09-17T04:48:04.490Z,31.42
2023-09-17T04:50:31.631Z,23.65
2023-09-17T04:52:58.623Z,22.95
2023-09-17T04:55:26.448Z,25.95
2023-09-17T04:57:53.426Z,23.48
2023-09-17T05:00:21.528Z,24.58
2023-09-17T05:02:49.358Z,27.88
2023-09-17T05:05:21.026Z,26.90
2023-09-17T05:07:49.953Z,22.10
2023-09-17T05:10:16.746Z,24.38
2023-09-17T05:12:43.889Z,24.23
2023-09-17T05:15:10.924Z,27.33
2023-09-17T05:17:38.041Z,27.35
2023-09-17T05:20:07.596Z,32.08
2023-09-17T05:22:34.871Z,26.15
2023-09-17T05:25:02.968Z,26.80
2023-09-17T05:27:29.415Z,25.33
2023-09-17T05:29:56.021Z,25.50
2023-09-17T05:32:22.928Z,35.33
2023-09-17T05:34:49.619Z,27.02
2023-09-17T05:37:17.149Z,30.10
2023-09-17T05:39:44.501Z,24.52
2023-09-17T05:42:11.265Z,29.15
2023-09-17T05:44:37.865Z,26.40
2023-09-17T05:47:04.980Z,29.65
2023-09-17T05:49:32.533Z,38.10
2023-09-17T05:52:00.448Z,41.60
2023-09-17T05:54:28.089Z,29.33
2023-09-17T05:56:54.590Z,26.65
2023-09-17T05:59:22.100Z,28.52
2023-09-17T06:01:49.827Z,44.92
2023-09-17T06:04:16.417Z,31.92
2023-09-17T06:06:42.903Z,28.88
2023-09-17T06:09:11.866Z,38.13
2023-09-17T06:11:38.585Z,32.85
2023-09-17T06:14:07.727Z,32.15
2023-09-17T06:16:50.087Z,29.15
2023-09-17T06:19:21.617Z,29.83
2023-09-17T06:21:48.087Z,36.70
2023-09-17T06:24:14.678Z,28.38
2023-09-17T06:26:41.293Z,38.13
2023-09-17T06:29:08.595Z,43.67
2023-09-17T06:31:35.257Z,38.28
2023-09-17T06:34:01.896Z,37.33
2023-09-17T06:36:29.534Z,34.78
2023-09-17T06:38:58.494Z,35.22
2023-09-17T06:41:25.034Z,38.67
2023-09-17T06:43:51.657Z,40.70
2023-09-17T06:46:22.868Z,30.55
2023-09-17T06:48:49.588Z,33.88
2023-09-17T06:51:16.052Z,40.22
2023-09-17T06:53:42.552Z,43.83
2023-09-17T06:56:11.782Z,38.42
2023-09-17T06:58:38.272Z,41.88
2023-09-17T07:01:05.300Z,40.70
2023-09-17T07:03:32.132Z,42.88
2023-09-17T07:05:59.500Z,42.90
2023-09-17T07:08:26.202Z,34.80
2023-09-17T07:10:52.699Z,37.50
2023-09-17T07:13:19.147Z,38.92
2023-09-17T07:15:45.907Z,39.38
2023-09-17T07:18:13.661Z,43.08
2023-09-17T07:20:40.234Z,39.42
2023-09-17T07:23:06.719Z,30.77
2023-09-17T07:25:33.215Z,50.85
2023-09-17T07:28:06.060Z,42.60
2023-09-17T07:30:33.054Z,38.13
2023-09-17T07:32:59.765Z,42.38
2023-09-17T07:35:26.359Z,42.33
2023-09-17T07:37:52.855Z,40.70
2023-09-17T07:40:19.505Z,42.63
2023-09-17T07:42:46.727Z,36.95
2023-09-17T07:45:15.010Z,47.75
2023-09-17T07:47:41.834Z,40.95
2023-09-17T07:50:08.540Z,44.55
2023-09-17T07:52:35.020Z,39.67
2023-09-17T07:55:01.626Z,44.10
2023-09-17T07:57:28.182Z,46.72
2023-09-17T07:59:54.621Z,37.95
2023-09-17T08:02:21.408Z,27.58
2023-09-17T08:04:48.070Z,37.92
2023-09-17T08:07:14.638Z,45.83
2023-09-17T08:09:41.456Z,37.08
2023-09-17T08:12:08.040Z,37.92
2023-09-17T08:14:35.760Z,37.75
2023-09-17T08:17:03.440Z,36.15
2023-09-17T08:19:30.721Z,32.75
2023-09-17T08:21:57.428Z,42.80
2023-09-17T08:24:26.234Z,40.75
2023-09-17T08:26:56.174Z,39.15
2023-09-17T08:29:22.712Z,38.13
2023-09-17T08:31:49.351Z,46.22
2023-09-17T08:34:16.039Z,36.97
2023-09-17T08:36:42.580Z,43.88
2023-09-17T08:39:09.090Z,38.80
2023-09-17T08:41:36.934Z,41.42
2023-09-17T08:44:05.259Z,39.38
2023-09-17T08:46:32.083Z,44.70
2023-09-17T08:49:00.404Z,38.80
2023-09-17T08:51:27.494Z,38.85
2023-09-17T08:53:58.125Z,35.85
2023-09-17T08:56:25.039Z,39.80
2023-09-17T08:58:53.269Z,36.83
2023-09-17T09:01:24.019Z,35.10
2023-09-17T09:03:52.561Z,27.73
2023-09-17T09:06:21.147Z,30.13
2023-09-17T09:08:48.641Z,36.47
2023-09-17T09:11:15.353Z,24.13
2023-09-17T09:13:42.257Z,29.77
2023-09-17T09:16:08.843Z,29.55
2023-09-17T09:18:36.295Z,26.45
2023-09-17T09:21:02.913Z,27.45
2023-09-17T09:23:29.366Z,27.77
2023-09-17T09:25:55.881Z,30.10
2023-09-17T09:28:22.358Z,31.20
2023-09-17T09:30:48.974Z,31.52
2023-09-17T09:33:17.609Z,23.98
2023-09-17T09:35:45.031Z,27.80
2023-09-17T09:38:12.198Z,30.00
2023-09-17T09:40:39.299Z,32.60
2023-09-17T09:43:05.905Z,36.35
2023-09-17T09:45:40.116Z,38.70
2023-09-17T09:48:13.574Z,37.05
2023-09-17T09:50:40.087Z,40.05
2023-09-17T09:53:06.642Z,48.65
2023-09-17T09:55:33.640Z,40.28
2023-09-17T09:58:00.772Z,41.30
2023-09-17T10:00:28.208Z,42.53
2023-09-17T10:02:55.183Z,38.83
2023-09-17T10:05:34.488Z,38.88
2023-09-17T10:08:08.016Z,44.08
2023-09-17T10:10:35.705Z,43.10
2023-09-17T10:13:05.613Z,43.20
2023-09-17T10:15:32.853Z,41.05
2023-09-17T10:18:00.539Z,48.45
2023-09-17T10:20:27.789Z,44.65
2023-09-17T10:22:54.686Z,39.63
2023-09-17T10:25:22.014Z,45.78
2023-09-17T10:27:50.872Z,34.65
2023-09-17T10:30:18.895Z,35.25
2023-09-17T10:32:48.432Z,38.92
2023-09-17T10:35:18.177Z,46.03
2023-09-17T10:37:45.080Z,42.90
2023-09-17T10:40:13.457Z,42.20
2023-09-17T10:42:40.235Z,47.70
2023-09-17T10:45:09.503Z,45.17
2023-09-17T10:47:38.963Z,48.85
2023-09-17T10:50:06.019Z,35.95
2023-09-17T10:52:33.426Z,38.40
2023-09-17T10:55:00.279Z,50.25
2023-09-17T10:57:33.678Z,44.75
2023-09-17T11:00:01.621Z,40.67
2023-09-17T11:02:30.063Z,37.35
2023-09-17T11:04:57.039Z,43.05
2023-09-17T11:07:23.626Z,38.13
2023-09-17T11:09:52.193Z,49.88
2023-09-17T11:12:24.038Z,50.53
2023-09-17T11:14:51.228Z,47.95
2023-09-17T11:17:19.087Z,40.58
2023-09-17T11:19:45.691Z,50.58
2023-09-17T11:22:13.398Z,44.88
2023-09-17T11:24:40.294Z,50.75
2023-09-17T11:27:08.959Z,42.63
2023-09-17T11:29:38.236Z,51.33
2023-09-17T11:32:05.378Z,50.67
2023-09-17T11:34:32.485Z,56.25
2023-09-17T11:36:59.181Z,54.95
2023-09-17T11:39:26.114Z,63.45
2023-09-17T11:41:55.239Z,61.63
2023-09-17T11:44:22.506Z,62.65
2023-09-17T11:46:49.773Z,63.85
2023-09-17T11:49:16.873Z,64.57
2023-09-17T11:51:47.342Z,59.03
2023-09-17T11:54:16.909Z,52.53
2023-09-17T11:56:47.683Z,67.95
2023-09-17T11:59:17.240Z,58.00
2023-09-17T12:01:48.482Z,59.30
2023-09-17T12:04:15.773Z,62.83
2023-09-17T12:06:43.364Z,62.15
2023-09-17T12:09:39.243Z,60.17
2023-09-17T12:12:08.701Z,64.15
2023-09-17T12:14:35.383Z,61.10
2023-09-17T12:17:05.400Z,65.97
2023-09-17T12:19:32.068Z,64.38
2023-09-17T12:22:00.816Z,65.78
2023-09-17T12:24:39.406Z,75.65
2023-09-17T12:27:08.622Z,61.15
2023-09-17T12:29:36.620Z,78.55
2023-09-17T12:32:03.922Z,69.68
2023-09-17T12:34:30.536Z,69.80
2023-09-17T12:36:57.234Z,75.85
2023-09-17T12:39:24.645Z,70.97
2023-09-17T12:41:53.516Z,78.38
2023-09-17T12:44:20.208Z,67.57
2023-09-17T12:46:47.627Z,67.05
2023-09-17T12:49:14.498Z,73.95
2023-09-17T12:51:41.036Z,68.35
2023-09-17T12:54:09.995Z,59.83
2023-09-17T12:56:38.624Z,68.63
2023-09-17T12:59:05.199Z,71.20
2023-09-17T13:01:31.916Z,71.43
2023-09-17T13:04:05.882Z,69.55
2023-09-17T13:06:36.122Z,62.78
2023-09-17T13:09:03.866Z,69.18
2023-09-17T13:11:30.480Z,65.50
2023-09-17T13:13:58.261Z,67.40
2023-09-17T13:16:24.870Z,54.97
2023-09-17T13:18:54.363Z,61.58
2023-09-17T13:21:21.300Z,60.80
2023-09-17T13:23:48.325Z,50.00
2023-09-17T13:26:15.538Z,57.78
2023-09-17T13:28:42.348Z,56.08
2023-09-17T13:31:09.135Z,47.72
2023-09-17T13:33:37.669Z,55.00
2023-09-17T13:36:08.818Z,52.90
2023-09-17T13:38:35.886Z,51.65
2023-09-17T13:41:02.866Z,47.47
2023-09-17T13:43:29.450Z,51.38
2023-09-17T13:45:56.919Z,42.95
2023-09-17T13:48:25.885Z,42.67
2023-09-17T13:50:52.573Z,49.58
2023-09-17T13:53:19.449Z,48.17
2023-09-17T13:55:46.484Z,44.90
2023-09-17T13:58:14.740Z,49.63
2023-09-17T14:00:41.516Z,46.00
2023-09-17T14:03:14.245Z,47.55
2023-09-17T14:05:44.542Z,43.92
2023-09-17T14:08:12.511Z,36.72
2023-09-17T14:10:39.172Z,43.45
2023-09-17T14:13:05.909Z,41.55
2023-09-17T14:15:36.209Z,41.05
2023-09-17T14:18:03.063Z,47.58
2023-09-17T14:20:30.529Z,41.75
2023-09-17T14:22:57.413Z,42.03
2023-09-17T14:25:24.464Z,40.97
2023-09-17T14:27:51.003Z,36.42
2023-09-17T14:30:23.261Z,41.95
2023-09-17T14:32:51.545Z,39.60
2023-09-17T14:35:18.411Z,39.35
2023-09-17T14:37:45.573Z,38.10
2023-09-17T14:40:12.225Z,35.50
2023-09-17T14:42:39.911Z,43.15
2023-09-17T14:45:06.695Z,44.10
2023-09-17T14:47:33.251Z,39.03
2023-09-17T14:49:59.822Z,47.55
2023-09-17T14:52:26.445Z,41.85
2023-09-17T14:54:56.233Z,37.10
2023-09-17T14:57:22.715Z,44.60
2023-09-17T14:59:49.594Z,42.55
2023-09-17T15:02:17.604Z,42.42
2023-09-17T15:04:44.313Z,44.88
2023-09-17T15:07:13.336Z,35.17
2023-09-17T15:09:39.914Z,41.72
2023-09-17T15:12:06.782Z,33.15
2023-09-17T15:14:33.319Z,37.63
2023-09-17T15:16:59.981Z,42.55
2023-09-17T15:19:29.629Z,35.88
2023-09-17T15:21:56.161Z,41.13
2023-09-17T15:24:22.762Z,37.45
2023-09-17T15:26:49.227Z,35.53
2023-09-17T15:29:16.132Z,33.97
2023-09-17T15:31:42.724Z,37.63
2023-09-17T15:34:09.753Z,33.47
2023-09-17T15:36:38.631Z,33.00
2023-09-17T15:39:06.367Z,34.65
2023-09-17T15:41:32.869Z,32.38
2023-09-17T15:44:00.403Z,32.83
2023-09-17T15:46:26.947Z,32.75
2023-09-17T15:48:56.244Z,34.45
2023-09-17T15:51:22.819Z,33.03
2023-09-17T15:53:49.244Z,37.47
2023-09-17T15:56:15.792Z,33.47
2023-09-17T15:58:42.354Z,31.85
2023-09-17T16:01:10.038Z,35.40
2023-09-17T16:03:36.624Z,32.55
2023-09-17T16:06:03.350Z,31.80
2023-09-17T16:08:29.827Z,37.25
2023-09-17T16:10:56.659Z,27.52
2023-09-17T16:13:23.380Z,36.38
2023-09-17T16:15:52.866Z,31.15
2023-09-17T16:18:19.400Z,34.55
2023-09-17T16:20:45.970Z,35.63
2023-09-17T16:23:12.587Z,34.88
2023-09-17T16:25:39.330Z,30.52
2023-09-17T16:28:06.361Z,36.60
2023-09-17T16:30:32.870Z,35.85
2023-09-17T16:32:59.580Z,36.70
2023-09-17T16:35:26.430Z,33.47
2023-09-17T16:37:54.077Z,34.40
2023-09-17T16:40:21.646Z,40.65
2023-09-17T16:43:01.745Z,41.10
2023-09-17T16:45:32.594Z,33.15
2023-09-17T16:47:59.552Z,35.35
2023-09-17T16:50:29.848Z,33.33
2023-09-17T16:52:56.643Z,30.40
2023-09-17T16:55:23.226Z,17.88
2023-09-17T16:57:51.019Z,26.38
2023-09-17T17:00:17.536Z,25.30
2023-09-17T17:02:44.255Z,26.15
2023-09-17T17:05:11.316Z,28.55
2023-09-17T17:07:38.040Z,37.53
2023-09-17T17:10:04.894Z,29.65
2023-09-17T17:12:33.036Z,33.58
2023-09-17T17:14:59.502Z,26.83
2023-09-17T17:17:26.166Z,31.00
2023-09-17T17:19:52.752Z,36.90
2023-09-17T17:22:19.226Z,37.67
2023-09-17T17:24:45.712Z,34.70
2023-09-17T17:27:12.383Z,34.22
2023-09-17T17:29:38.851Z,32.78
2023-09-17T17:32:05.407Z,36.22
2023-09-17T17:34:37.237Z,37.38
2023-09-17T17:37:05.180Z,42.10
2023-09-17T17:39:31.779Z,44.83
2023-09-17T17:41:58.555Z,42.35
2023-09-17T17:44:25.533Z,41.25
2023-09-17T17:46:52.046Z,47.47
2023-09-17T17:49:18.527Z,47.28
2023-09-17T17:51:45.059Z,52.53
2023-09-17T17:54:11.524Z,47.83
2023-09-17T17:56:39.129Z,52.20
2023-09-17T17:59:05.796Z,57.92
2023-09-17T18:01:32.453Z,52.75
2023-09-17T18:03:59.019Z,52.17
2023-09-17T18:06:25.871Z,52.72
2023-09-17T18:08:52.823Z,50.95
2023-09-17T18:11:20.098Z,53.33
2023-09-17T18:13:47.455Z,46.05
2023-09-17T18:16:16.422Z,47.70
2023-09-17T18:18:45.238Z,48.13
2023-09-17T18:21:12.461Z,48.83
2023-09-17T18:23:38.947Z,54.95
2023-09-17T18:26:05.471Z,51.10
2023-09-17T18:28:31.976Z,51.95
2023-09-17T18:30:58.833Z,49.90
2023-09-17T18:33:25.436Z,49.60
2023-09-17T18:35:52.275Z,50.40
2023-09-17T18:38:20.219Z,51.10
2023-09-17T18:40:46.738Z,49.20
2023-09-17T18:43:13.287Z,50.58
2023-09-17T18:45:39.861Z,56.97
2023-09-17T18:48:06.478Z,51.95
2023-09-17T18:50:34.332Z,56.10
2023-09-17T18:53:01.242Z,50.60
2023-09-17T18:55:28.447Z,59.10
2023-09-17T18:57:55.372Z,50.67
2023-09-17T19:00:25.387Z,50.85
2023-09-17T19:02:52.123Z,46.70
2023-09-17T19:05:18.633Z,48.30
2023-09-17T19:07:45.711Z,56.35
2023-09-17T19:10:12.450Z,45.97
2023-09-17T19:12:39.459Z,55.60
2023-09-17T19:15:07.812Z,53.58
2023-09-17T19:17:35.775Z,57.47
2023-09-17T19:20:02.610Z,52.15
2023-09-17T19:22:29.100Z,46.22
2023-09-17T19:24:55.591Z,54.55
2023-09-17T19:27:22.046Z,51.08
2023-09-17T19:29:48.912Z,66.10
2023-09-17T19:32:15.741Z,61.75
2023-09-17T19:34:42.263Z,61.38
2023-09-17T19:37:11.563Z,56.45
2023-09-17T19:39:38.166Z,53.92
2023-09-17T19:42:04.768Z,57.08
2023-09-17T19:44:31.286Z,56.17
2023-09-17T19:47:00.045Z,60.28
2023-09-17T19:49:27.016Z,65.05
2023-09-17T19:51:53.519Z,59.83
2023-09-17T19:54:20.120Z,57.67
2023-09-17T19:56:47.778Z,51.20
2023-09-17T19:59:14.472Z,59.75
2023-09-17T20:01:41.431Z,60.45
2023-09-17T20:04:08.261Z,68.35
2023-09-17T20:06:47.724Z,56.35
2023-09-17T20:09:24.330Z,52.72
2023-09-17T20:11:50.860Z,57.35
2023-09-17T20:14:17.511Z,58.88
2023-09-17T20:16:46.316Z,57.20
2023-09-17T20:19:12.920Z,59.00
2023-09-17T20:21:41.210Z,59.97
2023-09-17T20:24:07.810Z,58.55
2023-09-17T20:26:37.243Z,51.50
2023-09-17T20:29:04.892Z,61.50
2023-09-17T20:31:33.633Z,50.85
2023-09-17T20:34:00.578Z,56.17
2023-09-17T20:36:27.129Z,53.72
2023-09-17T20:38:55.445Z,54.35
2023-09-17T20:41:24.055Z,55.67
2023-09-17T20:43:52.616Z,46.85
2023-09-17T20:46:19.033Z,44.53
2023-09-17T20:48:48.392Z,45.60
2023-09-17T20:51:15.259Z,48.75
2023-09-17T20:53:41.759Z,42.67
2023-09-17T20:56:08.372Z,51.42
2023-09-17T20:58:36.168Z,39.28
2023-09-17T21:01:02.934Z,39.97
2023-09-17T21:03:29.611Z,51.35
2023-09-17T21:05:57.135Z,40.60
2023-09-17T21:08:24.456Z,47.65
2023-09-17T21:10:51.155Z,38.80
2023-09-17T21:13:17.688Z,41.40
2023-09-17T21:15:44.211Z,49.45
2023-09-17T21:18:12.278Z,42.95
2023-09-17T21:20:38.801Z,37.97
2023-09-17T21:23:05.449Z,35.17
2023-09-17T21:25:32.591Z,44.08
2023-09-17T21:27:59.092Z,38.05
2023-09-17T21:30:25.630Z,45.72
2023-09-17T21:32:52.340Z,41.38
2023-09-17T21:35:19.157Z,31.98
2023-09-17T21:37:45.763Z,33.03
2023-09-17T21:40:12.569Z,32.42
2023-09-17T21:42:39.122Z,33.38
2023-09-17T21:45:06.179Z,39.60
2023-09-17T21:47:32.796Z,36.70
2023-09-17T21:50:01.123Z,41.78
2023-09-17T21:52:29.574Z,28.95
2023-09-17T21:54:56.318Z,34.88
2023-09-17T21:57:23.223Z,38.75
2023-09-17T21:59:49.717Z,26.65
2023-09-17T22:02:16.437Z,37.65
2023-09-17T22:04:43.406Z,31.48
2023-09-17T22:07:10.240Z,33.58
2023-09-17T22:09:37.106Z,30.38
2023-09-17T22:12:07.977Z,32.00
2023-09-17T22:14:37.482Z,29.55
2023-09-17T22:17:04.137Z,29.90
2023-09-17T22:19:30.761Z,28.10
2023-09-17T22:21:57.392Z,28.27
2023-09-17T22:24:24.841Z,35.55
2023-09-17T22:26:51.437Z,32.33
2023-09-17T22:29:17.950Z,27.92
2023-09-17T22:31:44.565Z,31.50
2023-09-17T22:34:11.140Z,27.75
2023-09-17T22:36:37.940Z,28.85
2023-09-17T22:39:06.003Z,31.23
2023-09-17T22:41:32.570Z,33.40
2023-09-17T22:44:11.748Z,26.27
2023-09-17T22:46:38.928Z,28.98
2023-09-17T22:49:05.925Z,26.42
2023-09-17T22:51:32.409Z,24.90
2023-09-17T22:53:59.244Z,26.83
2023-09-17T22:56:26.061Z,22.52
2023-09-17T22:58:52.848Z,25.58
2023-09-17T23:01:20.834Z,25.70
2023-09-17T23:03:47.922Z,22.33
2023-09-17T23:06:14.543Z,21.65
2023-09-17T23:08:41.745Z,28.80
2023-09-17T23:11:08.921Z,26.88
2023-09-17T23:13:35.809Z,27.42
2023-09-17T23:16:02.494Z,22.92
2023-09-17T23:18:29.194Z,19.13
2023-09-17T23:20:55.712Z,24.65
2023-09-17T23:23:22.341Z,23.52
2023-09-17T23:25:49.738Z,19.42
2023-09-17T23:28:16.214Z,19.52
2023-09-17T23:30:42.656Z,24.33
2023-09-17T23:33:11.172Z,28.40
2023-09-17T23:35:39.879Z,18.98
2023-09-17T23:38:06.384Z,20.92
2023-09-17T23:40:33.111Z,21.48
2023-09-17T23:42:59.863Z,27.90
2023-09-17T23:45:27.070Z,25.67
2023-09-17T23:47:53.551Z,26.23
2023-09-17T23:50:20.120Z,22.83
2023-09-17T23:52:46.703Z,29.85
2023-09-17T23:55:13.485Z,22.70
2023-09-17T23:57:40.189Z,24.88
